• Join FlightAware (Why Join?)
  • Login
  • US Flag 
12:47AM EDT


 

Airport Tracker/Info


-or-


 

Live Flight TrackerFlight Track Log ✈ N102WY ✈ 01-Mar-2014 ✈ CYEG - KCPR

Flight Track Log - Related Links

Times and Time Zones

All times are in EST time to prevent confusion due to time zone crossing. See the N102WY flight status page for this flight to view local times or setup timezone preferences in your user account.

Time Position Orientation Groundspeed Altitude Reporting Facility
EST Latitude Longitude Course Direction KTS MPH feet Rate Location/Type
10:46PM 53.3000 -113.6167 169° South 130 150 3,400  Level Edmonton Center
10:47PM 53.2500 -113.6000 169° South 190 219 5,100 2,700 Climbing Edmonton Center
10:48PM 53.2000 -113.5333 141° Southeast 210 242 8,800 3,900 Climbing Edmonton Center
10:49PM 53.1667 -113.4667 130° Southeast 250 288 12,900 4,380 Climbing Edmonton Center
10:50PM 53.1167 -113.3667 130° Southeast 280 322 17,600 3,900 Climbing Edmonton Center
10:51PM 53.0333 -113.3000 154° Southeast 300 345 20,700 3,060 Climbing Edmonton Center
10:52PM 52.9500 -113.2500 160° South 320 368 23,800 2,700 Climbing Edmonton Center
10:53PM 52.8667 -113.1833 154° Southeast 330 380 26,200 2,400 Climbing Edmonton Center
10:54PM 52.7667 -113.1333 163° South 350 403 28,700 2,160 Climbing Edmonton Center
10:55PM 52.6667 -113.0667 158° South 360 414 30,600 1,980 Climbing Edmonton Center
10:56PM 52.5833 -112.9833 149° Southeast 360 414 32,700 1,860 Climbing Edmonton Center
10:57PM 52.4833 -112.9167 158° South 360 414 34,400 1,560 Climbing Edmonton Center
10:58PM 52.4000 -112.8667 160° South 360 414 35,900 1,440 Climbing Edmonton Center
10:59PM 52.3000 -112.8000 158° South 360 414 37,300 1,200 Climbing Edmonton Center
11:00PM 52.2167 -112.7167 148° Southeast 350 403 38,400 840 Climbing Edmonton Center
11:01PM 52.1167 -112.6833 168° South 350 403 39,000 300 Climbing Edmonton Center
11:02PM 52.0167 -112.6000 153° Southeast 360 414 39,000  Level Edmonton Center
11:03PM 51.9333 -112.5333 154° Southeast 390 449 39,000  Level Edmonton Center
11:04PM 51.8167 -112.4667 161° South 410 472 39,000  Level Edmonton Center
11:05PM 51.7000 -112.3833 156° South 430 495 39,000  Level Edmonton Center
11:06PM 51.5833 -112.3167 160° South 430 495 39,000  Level Edmonton Center
11:07PM 51.4667 -112.2333 156° South 430 495 39,000  Level Edmonton Center
11:08PM 51.3833 -112.1667 153° Southeast 420 483 39,000  Level Edmonton Center
11:09PM 51.2667 -112.1000 160° South 420 483 39,000  Level Edmonton Center
11:10PM 51.1500 -112.0167 156° South 420 483 39,000  Level Edmonton Center
11:11PM 51.0500 -111.9500 157° South 420 483 39,000  Level Edmonton Center
11:12PM 50.9333 -111.8833 160° South 420 483 39,000  Level Edmonton Center
11:13PM 50.8167 -111.8000 156° South 420 483 39,000  Level Edmonton Center
11:14PM 50.7167 -111.7333 157° South 420 483 39,000  Level Edmonton Center
11:15PM 50.6167 -111.6667 157° South 430 495 39,000  Level Edmonton Center
11:16PM 50.5000 -111.6000 160° South 420 483 39,000  Level Edmonton Center
11:17PM 50.3833 -111.5333 160° South 430 495 39,000  Level Edmonton Center
11:18PM 50.2667 -111.4500 155° Southeast 430 495 39,000  Level Edmonton Center
11:19PM 50.1500 -111.3833 160° South 430 495 39,000  Level Edmonton Center
11:20PM 50.0333 -111.3167 160° South 430 495 39,000  Level Edmonton Center
11:21PM 49.9500 -111.2500 153° Southeast 430 495 39,000  Level Edmonton Center
11:22PM 49.8333 -111.1833 160° South 430 495 39,000  Level Edmonton Center
11:23PM 49.7167 -111.0833 151° Southeast 430 495 39,000  Level Edmonton Center
11:24PM 49.6000 -111.0000 155° Southeast 420 483 39,000  Level Edmonton Center
11:25PM 49.5000 -110.9333 157° South 420 483 39,000  Level Edmonton Center
11:26PM 49.4167 -110.8333 142° Southeast 420 483 39,000  Level Edmonton Center
11:27PM 49.3000 -110.7667 160° South 420 483 39,000  Level Edmonton Center
11:28PM 49.2000 -110.6833 151° Southeast 420 483 39,000  Level Edmonton Center
11:29PM 49.0833 -110.6000 155° Southeast 420 483 39,000  Level Edmonton Center
11:30PM 48.9833 -110.5333 156° South 420 483 39,000  Level Edmonton Center
11:31PM 48.8667 -110.4333 151° Southeast 420 483 39,000  Level Edmonton Center
11:32PM 48.8444 -110.3919 129° Southeast 422 486 39,000  Level Salt Lake Center
11:33PM 48.7381 -110.3128 154° Southeast 424 488 39,000  Level Salt Lake Center
11:34PM 48.6108 -110.2200 154° Southeast 424 488 39,000  Level Salt Lake Center
11:35PM 48.5044 -110.1406 154° Southeast 425 489 39,000  Level Salt Lake Center
11:36PM 48.3972 -110.0608 154° Southeast 427 491 39,000  Level Salt Lake Center
11:37PM 48.2897 -109.9828 154° Southeast 428 493 39,000  Level Salt Lake Center
11:38PM 48.1819 -109.9039 154° Southeast 430 495 39,000  Level Salt Lake Center
11:39PM 48.0750 -109.8267 154° Southeast 428 493 39,000  Level Salt Lake Center
11:40PM 47.9683 -109.7489 154° Southeast 427 491 39,000  Level Salt Lake Center
11:41PM 47.8603 -109.6722 155° Southeast 428 493 39,000  Level Salt Lake Center
11:42PM 47.7542 -109.5961 154° Southeast 424 488 39,000  Level Salt Lake Center
11:43PM 47.6489 -109.5211 154° Southeast 422 486 39,000  Level Salt Lake Center
11:44PM 47.5433 -109.4456 154° Southeast 421 484 39,000  Level Salt Lake Center
11:45PM 47.4364 -109.3719 155° Southeast 422 486 39,000  Level Salt Lake Center
11:46PM 47.3294 -109.2969 155° Southeast 425 489 39,000  Level Salt Lake Center
11:47PM 47.2233 -109.2228 155° Southeast 423 487 39,000  Level Salt Lake Center
11:48PM 47.1186 -109.1483 154° Southeast 420 483 39,000  Level Salt Lake Center
11:49PM 47.0117 -109.0744 155° Southeast 422 486 39,000  Level Salt Lake Center
11:50PM 46.8856 -108.9933 156° South 424 488 39,000  Level Salt Lake Center
11:51PM 46.7806 -108.9183 154° Southeast 422 486 39,000  Level Salt Lake Center
11:52PM 46.6742 -108.8439 154° Southeast 423 487 39,000  Level Salt Lake Center
11:53PM 46.5683 -108.7717 155° Southeast 421 484 39,000  Level Salt Lake Center
11:54PM 46.4633 -108.7011 155° Southeast 417 480 39,000  Level Salt Lake Center
11:55PM 46.3581 -108.6311 155° Southeast 417 480 39,000  Level Salt Lake Center
11:56PM 46.2528 -108.5606 155° Southeast 417 480 39,000  Level Salt Lake Center
11:57PM 46.1478 -108.4900 155° Southeast 416 479 39,000  Level Salt Lake Center
11:58PM 46.0414 -108.4208 156° South 418 481 39,000  Level Salt Lake Center
11:59PM 45.9378 -108.3517 155° Southeast 412 474 39,000  Level Salt Lake Center
12:00AM 45.8333 -108.2839 156° South 412 474 39,000  Level Salt Lake Center
12:01AM 45.7289 -108.2161 156° South 412 474 39,000  Level Salt Lake Center
12:02AM 45.6244 -108.1475 155° Southeast 413 475 39,000  Level Salt Lake Center
12:03AM 45.5200 -108.0803 156° South 413 475 39,000  Level Salt Lake Center
12:04AM 45.4164 -108.0117 155° Southeast 411 473 39,000  Level Salt Lake Center
12:05AM 45.3119 -107.9447 156° South 411 473 39,000  Level Salt Lake Center
12:06AM 45.2072 -107.8767 155° Southeast 413 475 39,000  Level Salt Lake Center
12:07AM 45.0808 -107.7964 156° South 414 476 39,000  Level Salt Lake Center
12:08AM 44.9764 -107.7286 155° Southeast 408 470 39,000  Level Salt Lake Center
12:09AM 44.8897 -107.6744 156° South 416 479 39,000  Level Salt Lake Center
12:10AM 44.7819 -107.6064 156° South 418 481 39,000  Level Salt Lake Center
12:11AM 44.6758 -107.5400 156° South 415 478 39,000  Level Salt Lake Center
12:12AM 44.5714 -107.4744 156° South 410 472 39,000  Level Salt Lake Center
12:13AM 44.4458 -107.3967 156° South 412 474 39,000  Level Salt Lake Center
12:14AM 44.3411 -107.3333 157° South 410 472 39,000 -300 Level Salt Lake Center
12:15AM 44.2381 -107.2683 156° South 407 468 38,500 -1,200 Descending Salt Lake Center
12:16AM 44.1331 -107.2031 156° South 412 474 36,700 -1,980 Descending Salt Lake Center
12:17AM 44.0292 -107.1400 156° South 409 471 34,500 -2,340 Descending Salt Lake Center
12:18AM 43.9219 -107.0761 157° South 417 480 32,100 -2,400 Descending Salt Lake Center
12:19AM 43.8169 -107.0144 157° South 414 476 29,700 -2,460 Descending Salt Lake Center
12:20AM 43.7156 -106.9558 157° South 402 463 27,100 -2,580 Descending Salt Lake Center
12:21AM 43.6114 -106.9394 174° South 383 441 24,500 -2,580 Descending Salt Lake Center
12:22AM 43.5033 -106.9208 173° South 391 450 21,900 -2,700 Descending Salt Lake Center
12:23AM 43.3939 -106.9044 174° South 377 434 19,100 -2,760 Descending Salt Lake Center
12:24AM 43.2986 -106.8897 174° South 365 420 16,400 -2,700 Descending Salt Lake Center
12:25AM 43.2042 -106.8786 175° South 360 414 13,700 -2,460 Descending Salt Lake Center
12:26AM 43.1125 -106.8956 188° South 303 349 11,400 -2,160 Descending Salt Lake Center
12:27AM 43.0375 -106.8906 177° South 288 331 9,400 -1,320 Descending Salt Lake Center
12:28AM 42.9542 -106.8739 172° South 286 329 8,800 -600 Descending Salt Lake Center
12:30AM 42.9338 -106.7131 100° East  Level FlightAware Approximate